Time,TemperatureF,DewpointF,PressureIn,WindDirection,WindDirectionDegrees,WindSpeedMPH,WindSpeedGustMPH,Humidity,HourlyPrecipIn,Conditions,Clouds,dailyrainin,SoftwareType,DateUTC
2013-12-06 00:01:00,11.9,5.4,29.76,NNW,338,8.5,11.6,75,0.00,,,0.00,WUHU216HW,2013-12-06 06:01:00,
2013-12-06 00:06:00,11.9,5.4,29.76,NW,315,8.1,11.2,75,0.00,,,0.00,WUHU216HW,2013-12-06 06:06:00,
2013-12-06 00:11:00,11.9,5.4,29.76,NNW,338,5.6,11.2,75,0.00,,,0.00,WUHU216HW,2013-12-06 06:11:00,
2013-12-06 00:16:00,11.7,5.5,29.75,West,270,4.0,9.4,76,0.00,,,0.00,WUHU216HW,2013-12-06 06:16:00,
2013-12-06 00:21:00,11.7,5.5,29.75,West,270,6.7,8.5,76,0.00,,,0.00,WUHU216HW,2013-12-06 06:21:00,
2013-12-06 00:26:00,11.5,5.3,29.75,NNW,338,6.0,10.3,76,0.00,,,0.00,WUHU216HW,2013-12-06 06:26:00,
2013-12-06 00:31:00,11.5,5.3,29.75,NW,315,8.3,10.3,76,0.00,,,0.00,WUHU216HW,2013-12-06 06:31:00,
2013-12-06 00:36:00,11.2,5.0,29.75,NW,315,5.4,8.3,76,0.00,,,0.00,WUHU216HW,2013-12-06 06:36:00,
2013-12-06 00:41:00,11.2,5.2,29.74,NW,315,3.8,8.3,77,0.00,,,0.00,WUHU216HW,2013-12-06 06:41:00,
2013-12-06 00:46:00,11.2,5.2,29.74,NNW,338,7.2,7.8,77,0.00,,,0.00,WUHU216HW,2013-12-06 06:46:00,
2013-12-06 00:51:00,11.0,5.0,29.74,WNW,293,5.1,10.5,77,0.00,,,0.00,WUHU216HW,2013-12-06 06:51:00,
2013-12-06 00:56:00,10.8,4.9,29.74,NW,315,6.0,10.5,77,0.00,,,0.00,WUHU216HW,2013-12-06 06:56:00,
2013-12-06 01:01:00,10.6,4.4,29.74,WNW,293,6.9,12.8,76,0.00,,,0.00,WUHU216HW,2013-12-06 07:01:00,
2013-12-06 01:06:00,10.4,4.2,29.75,WNW,293,7.6,12.8,76,0.00,,,0.00,WUHU216HW,2013-12-06 07:06:00,
2013-12-06 01:11:00,10.3,4.1,29.74,NNW,338,7.2,8.3,76,0.00,,,0.00,WUHU216HW,2013-12-06 07:11:00,
2013-12-06 01:16:00,10.3,4.1,29.75,NW,315,6.5,11.4,76,0.00,,,0.00,WUHU216HW,2013-12-06 07:16:00,
2013-12-06 01:21:00,10.1,4.2,29.74,West,270,6.3,11.4,77,0.00,,,0.00,WUHU216HW,2013-12-06 07:21:00,
2013-12-06 01:26:00,9.9,4.1,29.74,NW,315,2.7,10.5,77,0.00,,,0.00,WUHU216HW,2013-12-06 07:26:00,
2013-12-06 01:31:00,9.9,4.1,29.74,NNW,338,5.8,9.2,77,0.00,,,0.00,WUHU216HW,2013-12-06 07:31:00,
2013-12-06 01:36:00,9.7,3.9,29.74,NW,315,4.9,8.7,77,0.00,,,0.00,WUHU216HW,2013-12-06 07:36:00,
2013-12-06 01:41:00,9.7,3.9,29.75,NNW,338,6.0,9.8,77,0.00,,,0.00,WUHU216HW,2013-12-06 07:41:00,
2013-12-06 01:46:00,9.5,3.7,29.75,NW,315,4.3,9.8,77,0.00,,,0.00,WUHU216HW,2013-12-06 07:46:00,
2013-12-06 01:51:00,9.4,3.6,29.75,NNW,338,9.6,9.6,77,0.00,,,0.00,WUHU216HW,2013-12-06 07:51:00,
2013-12-06 01:56:00,9.2,3.4,29.75,NNW,338,7.4,11.9,77,0.00,,,0.00,WUHU216HW,2013-12-06 07:56:00,
2013-12-06 02:01:00,9.0,3.2,29.76,NNW,338,3.4,11.9,77,0.00,,,0.00,WUHU216HW,2013-12-06 08:01:00,
2013-12-06 02:06:00,8.8,3.1,29.76,North,0,3.1,9.8,77,0.00,,,0.00,WUHU216HW,2013-12-06 08:06:00,
2013-12-06 02:11:00,8.8,3.1,29.76,NW,315,6.5,10.7,77,0.00,,,0.00,WUHU216HW,2013-12-06 08:11:00,
2013-12-06 02:16:00,8.6,2.9,29.76,NW,315,5.1,10.7,77,0.00,,,0.00,WUHU216HW,2013-12-06 08:16:00,
2013-12-06 02:21:00,8.6,2.9,29.76,West,270,5.1,13.4,77,0.00,,,0.00,WUHU216HW,2013-12-06 08:21:00,
2013-12-06 02:26:00,8.5,2.7,29.76,NW,315,9.8,13.4,77,0.00,,,0.00,WUHU216HW,2013-12-06 08:26:00,
2013-12-06 02:31:00,8.3,2.5,29.76,NW,315,6.7,11.2,77,0.00,,,0.00,WUHU216HW,2013-12-06 08:31:00,
2013-12-06 02:36:00,8.3,2.9,29.76,West,270,8.5,15.0,78,0.00,,,0.00,WUHU216HW,2013-12-06 08:36:00,
2013-12-06 02:41:00,8.3,2.9,29.76,NW,315,8.7,15.0,78,0.00,,,0.00,WUHU216HW,2013-12-06 08:41:00,
2013-12-06 02:46:00,8.3,2.9,29.76,NW,315,7.6,11.0,78,0.00,,,0.00,WUHU216HW,2013-12-06 08:46:00,
2013-12-06 02:51:00,8.1,2.7,29.76,North,0,8.1,10.3,78,0.00,,,0.00,WUHU216HW,2013-12-06 08:51:00,
2013-12-06 02:56:00,7.9,2.5,29.77,WNW,293,8.3,11.4,78,0.00,,,0.00,WUHU216HW,2013-12-06 08:56:00,
2013-12-06 03:01:00,7.9,2.5,29.77,NNW,338,9.8,11.9,78,0.00,,,0.00,WUHU216HW,2013-12-06 09:01:00,
2013-12-06 03:06:00,7.6,2.2,29.77,WNW,293,10.1,11.9,78,0.00,,,0.00,WUHU216HW,2013-12-06 09:06:00,
2013-12-06 03:11:00,7.6,2.2,29.77,NNW,338,6.7,11.4,78,0.00,,,0.00,WUHU216HW,2013-12-06 09:11:00,
2013-12-06 03:16:00,7.6,2.2,29.78,NW,315,4.0,9.4,78,0.00,,,0.00,WUHU216HW,2013-12-06 09:16:00,
2013-12-06 03:21:00,7.6,2.2,29.77,West,270,6.0,9.4,78,0.00,,,0.00,WUHU216HW,2013-12-06 09:21:00,
2013-12-06 03:26:00,7.6,2.2,29.78,WNW,293,5.6,8.1,78,0.00,,,0.00,WUHU216HW,2013-12-06 09:26:00,
2013-12-06 03:31:00,7.6,2.2,29.77,WNW,293,7.8,9.4,78,0.00,,,0.00,WUHU216HW,2013-12-06 09:31:00,
2013-12-06 03:36:00,7.6,2.2,29.78,NW,315,6.7,9.4,78,0.00,,,0.00,WUHU216HW,2013-12-06 09:36:00,
2013-12-06 03:42:00,7.6,2.2,29.77,WSW,248,5.6,11.4,78,0.00,,,0.00,WUHU216HW,2013-12-06 09:42:00,
2013-12-06 03:47:00,7.6,2.2,29.78,West,270,5.4,11.4,78,0.00,,,0.00,WUHU216HW,2013-12-06 09:47:00,
2013-12-06 03:52:00,7.4,2.0,29.77,West,270,8.5,11.2,78,0.00,,,0.00,WUHU216HW,2013-12-06 09:52:00,
2013-12-06 03:57:00,7.2,1.8,29.77,NW,315,4.0,11.2,78,0.00,,,0.00,WUHU216HW,2013-12-06 09:57:00,
2013-12-06 04:02:00,7.0,1.6,29.78,NNW,338,4.3,9.8,78,0.00,,,0.00,WUHU216HW,2013-12-06 10:02:00,
2013-12-06 04:07:00,7.0,1.6,29.78,NNW,338,6.9,9.4,78,0.00,,,0.00,WUHU216HW,2013-12-06 10:07:00,
2013-12-06 04:12:00,7.0,1.6,29.78,WNW,293,5.8,9.2,78,0.00,,,0.00,WUHU216HW,2013-12-06 10:12:00,
2013-12-06 04:17:00,6.8,1.5,29.78,NW,315,4.0,9.8,78,0.00,,,0.00,WUHU216HW,2013-12-06 10:17:00,
2013-12-06 04:22:00,6.8,1.5,29.78,WNW,293,6.3,10.3,78,0.00,,,0.00,WUHU216HW,2013-12-06 10:22:00,
2013-12-06 04:27:00,6.8,1.5,29.78,NW,315,12.8,13.0,78,0.00,,,0.00,WUHU216HW,2013-12-06 10:27:00,
2013-12-06 04:32:00,6.7,1.3,29.78,NNW,338,9.8,13.0,78,0.00,,,0.00,WUHU216HW,2013-12-06 10:32:00,
2013-12-06 04:37:00,6.5,1.1,29.79,NW,315,8.3,12.8,78,0.00,,,0.00,WUHU216HW,2013-12-06 10:37:00,
2013-12-06 04:42:00,6.5,1.1,29.79,NW,315,5.4,9.8,78,0.00,,,0.00,WUHU216HW,2013-12-06 10:42:00,
2013-12-06 04:47:00,6.3,0.9,29.79,WNW,293,6.7,12.3,78,0.00,,,0.00,WUHU216HW,2013-12-06 10:47:00,
2013-12-06 04:52:00,6.3,0.9,29.79,NW,315,9.2,12.3,78,0.00,,,0.00,WUHU216HW,2013-12-06 10:52:00,
2013-12-06 04:57:00,6.3,0.9,29.78,WNW,293,11.9,11.9,78,0.00,,,0.00,WUHU216HW,2013-12-06 10:57:00,
2013-12-06 05:02:00,6.3,1.2,29.78,NW,315,6.5,13.0,79,0.00,,,0.00,WUHU216HW,2013-12-06 11:02:00,
2013-12-06 05:07:00,6.3,1.2,29.79,NW,315,5.6,13.0,79,0.00,,,0.00,WUHU216HW,2013-12-06 11:07:00,
2013-12-06 05:12:00,6.3,1.2,29.79,WNW,293,9.6,11.6,79,0.00,,,0.00,WUHU216HW,2013-12-06 11:12:00,
2013-12-06 05:17:00,6.3,1.2,29.79,NW,315,9.2,11.6,79,0.00,,,0.00,WUHU216HW,2013-12-06 11:17:00,
2013-12-06 05:22:00,6.3,1.2,29.79,NW,315,6.0,11.9,79,0.00,,,0.00,WUHU216HW,2013-12-06 11:22:00,
2013-12-06 05:27:00,6.3,1.2,29.79,West,270,6.9,11.9,79,0.00,,,0.00,WUHU216HW,2013-12-06 11:27:00,
2013-12-06 05:32:00,6.3,1.2,29.79,NW,315,5.1,10.5,79,0.00,,,0.00,WUHU216HW,2013-12-06 11:32:00,
2013-12-06 05:37:00,6.3,1.2,29.80,NNW,338,6.9,11.0,79,0.00,,,0.00,WUHU216HW,2013-12-06 11:37:00,
2013-12-06 05:42:00,6.3,1.2,29.80,NW,315,8.5,11.0,79,0.00,,,0.00,WUHU216HW,2013-12-06 11:42:00,
2013-12-06 05:47:00,6.1,1.0,29.80,NW,315,4.0,9.6,79,0.00,,,0.00,WUHU216HW,2013-12-06 11:47:00,
2013-12-06 05:52:00,6.1,1.0,29.80,NNW,338,8.9,9.8,79,0.00,,,0.00,WUHU216HW,2013-12-06 11:52:00,
2013-12-06 05:57:00,6.1,1.0,29.80,NNW,338,5.4,12.1,79,0.00,,,0.00,WUHU216HW,2013-12-06 11:57:00,
2013-12-06 06:02:00,5.9,0.8,29.81,NW,315,6.9,12.1,79,0.00,,,0.00,WUHU216HW,2013-12-06 12:02:00,
2013-12-06 06:07:00,5.8,0.6,29.81,NW,315,7.6,11.9,79,0.00,,,0.00,WUHU216HW,2013-12-06 12:07:00,
2013-12-06 06:12:00,5.8,0.9,29.82,WNW,293,9.6,11.0,80,0.00,,,0.00,WUHU216HW,2013-12-06 12:12:00,
2013-12-06 06:17:00,5.8,0.9,29.82,North,0,2.5,9.6,80,0.00,,,0.00,WUHU216HW,2013-12-06 12:17:00,
2013-12-06 06:22:00,5.8,0.9,29.82,NW,315,8.3,9.6,80,0.00,,,0.00,WUHU216HW,2013-12-06 12:22:00,
2013-12-06 06:27:00,5.6,0.7,29.82,NW,315,10.7,10.7,80,0.00,,,0.00,WUHU216HW,2013-12-06 12:27:00,
2013-12-06 06:32:00,5.6,0.7,29.82,WNW,293,6.9,10.7,80,0.01,,,0.01,WUHU216HW,2013-12-06 12:32:00,
2013-12-06 06:37:00,5.6,0.7,29.83,NW,315,10.1,10.1,80,0.01,,,0.01,WUHU216HW,2013-12-06 12:37:00,
2013-12-06 06:42:00,5.6,0.7,29.83,NW,315,10.1,10.1,80,0.01,,,0.01,WUHU216HW,2013-12-06 12:42:00,
2013-12-06 06:47:00,5.6,0.7,29.83,NW,315,4.5,10.1,80,0.01,,,0.01,WUHU216HW,2013-12-06 12:47:00,
2013-12-06 06:52:00,5.6,0.7,29.83,NW,315,4.7,10.1,80,0.01,,,0.01,WUHU216HW,2013-12-06 12:52:00,
2013-12-06 06:57:00,5.4,0.5,29.83,NNW,338,7.6,12.1,80,0.01,,,0.01,WUHU216HW,2013-12-06 12:57:00,
2013-12-06 07:02:00,5.4,0.5,29.83,WNW,293,4.0,12.1,80,0.01,,,0.01,WUHU216HW,2013-12-06 13:02:00,
2013-12-06 07:07:00,5.4,0.5,29.83,NW,315,5.1,11.6,80,0.01,,,0.01,WUHU216HW,2013-12-06 13:07:00,
2013-12-06 07:12:00,5.4,0.5,29.83,NW,315,9.6,10.5,80,0.01,,,0.01,WUHU216HW,2013-12-06 13:12:00,
2013-12-06 07:17:00,5.4,0.5,29.82,NW,315,9.8,10.5,80,0.01,,,0.01,WUHU216HW,2013-12-06 13:17:00,
2013-12-06 07:22:00,5.2,0.4,29.83,NW,315,3.6,10.5,80,0.01,,,0.01,WUHU216HW,2013-12-06 13:22:00,
2013-12-06 07:27:00,5.2,0.4,29.82,NW,315,4.9,8.9,80,0.01,,,0.01,WUHU216HW,2013-12-06 13:27:00,
2013-12-06 07:32:00,5.2,0.4,29.82,NW,315,3.4,8.1,80,0.00,,,0.01,WUHU216HW,2013-12-06 13:32:00,
2013-12-06 07:37:00,5.2,0.4,29.83,NW,315,4.7,8.5,80,0.00,,,0.01,WUHU216HW,2013-12-06 13:37:00,
2013-12-06 07:42:00,5.4,0.5,29.83,NNW,338,4.7,8.5,80,0.00,,,0.01,WUHU216HW,2013-12-06 13:42:00,
2013-12-06 07:47:00,5.4,0.5,29.83,NW,315,9.4,9.8,80,0.00,,,0.01,WUHU216HW,2013-12-06 13:47:00,
2013-12-06 07:52:00,5.4,0.5,29.84,WNW,293,5.4,9.8,80,0.00,,,0.01,WUHU216HW,2013-12-06 13:52:00,
2013-12-06 07:57:00,5.4,0.5,29.84,NW,315,8.5,9.4,80,0.00,,,0.01,WUHU216HW,2013-12-06 13:57:00,
2013-12-06 08:02:00,5.4,0.5,29.84,NW,315,5.8,9.4,80,0.00,,,0.01,WUHU216HW,2013-12-06 14:02:00,
2013-12-06 08:07:00,5.4,0.3,29.84,West,270,12.3,12.8,79,0.00,,,0.01,WUHU216HW,2013-12-06 14:07:00,
2013-12-06 08:12:00,5.4,0.3,29.85,NNW,338,6.7,12.8,79,0.00,,,0.01,WUHU216HW,2013-12-06 14:12:00,
2013-12-06 08:17:00,5.4,0.3,29.85,WNW,293,10.7,12.8,79,0.00,,,0.01,WUHU216HW,2013-12-06 14:17:00,
2013-12-06 08:22:00,5.4,0.3,29.85,NW,315,9.6,10.7,79,0.00,,,0.01,WUHU216HW,2013-12-06 14:22:00,
2013-12-06 08:27:00,5.4,0.0,29.85,West,270,6.9,13.0,78,0.00,,,0.01,WUHU216HW,2013-12-06 14:27:00,
2013-12-06 08:32:00,5.6,0.2,29.85,WNW,293,9.4,13.0,78,0.00,,,0.01,WUHU216HW,2013-12-06 14:32:00,
2013-12-06 08:37:00,5.4,0.0,29.85,WNW,293,9.6,10.7,78,0.00,,,0.01,WUHU216HW,2013-12-06 14:37:00,
2013-12-06 08:42:00,5.8,0.4,29.85,NNW,338,3.1,10.7,78,0.00,,,0.01,WUHU216HW,2013-12-06 14:42:00,
2013-12-06 08:47:00,6.1,0.7,29.85,NW,315,7.6,9.6,78,0.00,,,0.01,WUHU216HW,2013-12-06 14:47:00,
2013-12-06 08:52:00,6.5,1.1,29.85,NNW,338,8.5,9.8,78,0.00,,,0.01,WUHU216HW,2013-12-06 14:52:00,
2013-12-06 08:57:00,6.8,1.5,29.85,NW,315,5.4,10.7,78,0.00,,,0.01,WUHU216HW,2013-12-06 14:57:00,
2013-12-06 09:02:00,7.2,1.4,29.85,NW,315,4.7,10.7,77,0.00,,,0.01,WUHU216HW,2013-12-06 15:02:00,
2013-12-06 09:07:00,7.2,1.4,29.85,NW,315,4.5,8.9,77,0.00,,,0.01,WUHU216HW,2013-12-06 15:07:00,
2013-12-06 09:12:00,7.2,1.2,29.85,North,0,9.8,15.0,76,0.00,,,0.01,WUHU216HW,2013-12-06 15:12:00,
2013-12-06 09:17:00,7.0,1.0,29.85,WNW,293,4.7,15.0,76,0.00,,,0.01,WUHU216HW,2013-12-06 15:17:00,
2013-12-06 09:22:00,7.0,1.0,29.85,NW,315,3.4,9.8,76,0.00,,,0.01,WUHU216HW,2013-12-06 15:22:00,
2013-12-06 09:27:00,7.0,1.0,29.85,NW,315,4.0,9.8,76,0.00,,,0.01,WUHU216HW,2013-12-06 15:27:00,
2013-12-06 09:32:00,7.2,1.2,29.86,West,270,8.9,10.3,76,0.00,,,0.01,WUHU216HW,2013-12-06 15:32:00,
2013-12-06 09:37:00,7.6,1.8,29.86,NNW,338,10.7,10.7,77,0.00,,,0.01,WUHU216HW,2013-12-06 15:37:00,
2013-12-06 09:42:00,7.6,1.8,29.87,WNW,293,10.5,10.7,77,0.00,,,0.01,WUHU216HW,2013-12-06 15:42:00,
2013-12-06 09:47:00,7.9,2.2,29.88,NW,315,3.6,10.7,77,0.00,,,0.01,WUHU216HW,2013-12-06 15:47:00,
2013-12-06 09:52:00,8.1,2.1,29.89,NW,315,8.3,8.5,76,0.00,,,0.01,WUHU216HW,2013-12-06 15:52:00,
2013-12-06 09:57:00,8.5,2.4,29.88,NW,315,4.7,8.3,76,0.00,,,0.01,WUHU216HW,2013-12-06 15:57:00,
2013-12-06 10:02:00,9.0,2.7,29.89,NW,315,8.7,8.7,75,0.00,,,0.01,WUHU216HW,2013-12-06 16:02:00,
2013-12-06 10:07:00,9.0,2.7,29.89,NNW,338,4.7,8.7,75,0.00,,,0.01,WUHU216HW,2013-12-06 16:07:00,
2013-12-06 10:12:00,9.2,3.2,29.89,WNW,293,8.1,8.7,76,0.00,,,0.01,WUHU216HW,2013-12-06 16:12:00,
2013-12-06 10:17:00,9.4,2.7,29.90,NW,315,8.3,10.5,74,0.00,,,0.01,WUHU216HW,2013-12-06 16:17:00,
2013-12-06 10:22:00,9.4,2.7,29.90,WNW,293,7.2,10.5,74,0.00,,,0.01,WUHU216HW,2013-12-06 16:22:00,
2013-12-06 10:27:00,9.7,2.7,29.90,WNW,293,9.6,10.1,73,0.00,,,0.01,WUHU216HW,2013-12-06 16:27:00,
2013-12-06 10:32:00,10.3,3.3,29.89,NW,315,11.0,11.0,73,0.00,,,0.01,WUHU216HW,2013-12-06 16:32:00,
2013-12-06 10:37:00,10.3,3.5,29.89,West,270,8.7,11.0,74,0.00,,,0.01,WUHU216HW,2013-12-06 16:37:00,
2013-12-06 10:42:00,10.4,3.4,29.90,NW,315,5.8,11.0,73,0.00,,,0.01,WUHU216HW,2013-12-06 16:42:00,
2013-12-06 10:47:00,10.4,3.4,29.90,NW,315,2.5,10.1,73,0.00,,,0.01,WUHU216HW,2013-12-06 16:47:00,
2013-12-06 10:52:00,10.6,3.6,29.89,NW,315,8.7,10.3,73,0.00,,,0.01,WUHU216HW,2013-12-06 16:52:00,
2013-12-06 10:57:00,10.8,3.8,29.88,NW,315,11.4,13.2,73,0.00,,,0.01,WUHU216HW,2013-12-06 16:57:00,
2013-12-06 11:02:00,11.0,4.2,29.89,WNW,293,4.3,13.2,74,0.00,,,0.01,WUHU216HW,2013-12-06 17:02:00,
2013-12-06 11:07:00,11.3,3.7,29.89,NW,315,2.2,11.4,71,0.00,,,0.01,WUHU216HW,2013-12-06 17:07:00,
2013-12-06 11:12:00,11.3,3.7,29.88,NW,315,5.8,13.0,71,0.00,,,0.01,WUHU216HW,2013-12-06 17:12:00,
2013-12-06 11:17:00,11.7,4.1,29.88,WNW,293,10.7,13.0,71,0.00,,,0.01,WUHU216HW,2013-12-06 17:17:00,
2013-12-06 11:22:00,11.9,4.2,29.88,NW,315,2.9,10.7,71,0.00,,,0.01,WUHU216HW,2013-12-06 17:22:00,
2013-12-06 11:27:00,11.9,4.2,29.88,NNW,338,3.1,10.7,71,0.00,,,0.01,WUHU216HW,2013-12-06 17:27:00,
2013-12-06 11:32:00,11.9,4.2,29.88,SW,225,4.5,9.4,71,0.00,,,0.01,WUHU216HW,2013-12-06 17:32:00,
2013-12-06 11:37:00,12.2,4.6,29.87,NW,315,5.1,9.4,71,0.00,,,0.01,WUHU216HW,2013-12-06 17:37:00,
2013-12-06 11:42:00,12.1,4.4,29.87,NW,315,6.9,9.8,71,0.00,,,0.01,WUHU216HW,2013-12-06 17:42:00,
2013-12-06 11:47:00,11.9,4.2,29.86,NNW,338,3.4,9.8,71,0.00,,,0.01,WUHU216HW,2013-12-06 17:47:00,
2013-12-06 11:52:00,12.1,4.7,29.86,NW,315,4.0,9.2,72,0.00,,,0.01,WUHU216HW,2013-12-06 17:52:00,
2013-12-06 11:57:00,12.1,4.4,29.86,NW,315,5.1,8.5,71,0.00,,,0.01,WUHU216HW,2013-12-06 17:57:00,
2013-12-06 12:02:00,12.2,4.3,29.86,NNW,338,8.1,8.5,70,0.00,,,0.01,WUHU216HW,2013-12-06 18:02:00,
2013-12-06 12:07:00,12.4,4.8,29.87,WSW,248,3.6,8.1,71,0.00,,,0.01,WUHU216HW,2013-12-06 18:07:00,
2013-12-06 12:12:00,13.0,5.0,29.87,WNW,293,5.1,8.1,70,0.00,,,0.01,WUHU216HW,2013-12-06 18:12:00,
2013-12-06 12:17:00,13.3,5.0,29.86,NNW,338,4.7,10.3,69,0.00,,,0.01,WUHU216HW,2013-12-06 18:17:00,
2013-12-06 12:22:00,13.3,5.4,29.86,NW,315,5.1,10.3,70,0.00,,,0.01,WUHU216HW,2013-12-06 18:22:00,
2013-12-06 12:27:00,13.1,4.9,29.84,NW,315,6.5,9.8,69,0.00,,,0.01,WUHU216HW,2013-12-06 18:27:00,
2013-12-06 12:32:00,13.5,5.6,29.84,WNW,293,6.5,9.8,70,0.00,,,0.01,WUHU216HW,2013-12-06 18:32:00,
2013-12-06 12:37:00,13.9,5.6,29.85,WNW,293,5.4,8.7,69,0.00,,,0.01,WUHU216HW,2013-12-06 18:37:00,
2013-12-06 12:42:00,14.2,5.6,29.85,NW,315,5.1,6.9,68,0.00,,,0.01,WUHU216HW,2013-12-06 18:42:00,
2013-12-06 12:47:00,14.4,5.8,29.84,NW,315,7.8,8.3,68,0.00,,,0.01,WUHU216HW,2013-12-06 18:47:00,
2013-12-06 12:52:00,14.2,5.6,29.84,NW,315,6.7,9.4,68,0.00,,,0.01,WUHU216HW,2013-12-06 18:52:00,
2013-12-06 12:57:00,14.6,5.6,29.84,NW,315,8.5,9.4,67,0.00,,,0.01,WUHU216HW,2013-12-06 18:57:00,
2013-12-06 13:02:00,14.8,5.8,29.84,NNW,338,13.2,13.2,67,0.00,,,0.01,WUHU216HW,2013-12-06 19:02:00,
2013-12-06 13:07:00,14.6,5.2,29.83,North,0,5.6,13.2,66,0.00,,,0.01,WUHU216HW,2013-12-06 19:07:00,
2013-12-06 13:12:00,14.0,5.1,29.84,NNW,338,5.4,8.7,67,0.00,,,0.01,WUHU216HW,2013-12-06 19:12:00,
2013-12-06 13:17:00,14.2,5.2,29.85,NW,315,5.6,12.1,67,0.00,,,0.01,WUHU216HW,2013-12-06 19:17:00,
2013-12-06 13:22:00,14.8,5.8,29.84,NNW,338,4.7,12.1,67,0.00,,,0.01,WUHU216HW,2013-12-06 19:22:00,
2013-12-06 13:27:00,14.8,5.4,29.84,NW,315,5.4,8.9,66,0.00,,,0.01,WUHU216HW,2013-12-06 19:27:00,
2013-12-06 13:32:00,15.1,5.8,29.84,NNW,338,10.5,10.5,66,0.00,,,0.01,WUHU216HW,2013-12-06 19:32:00,
2013-12-06 13:37:00,14.8,5.0,29.84,NW,315,7.6,12.5,65,0.00,,,0.01,WUHU216HW,2013-12-06 19:37:00,
2013-12-06 13:42:00,14.0,4.4,29.84,NNW,338,4.7,12.5,65,0.00,,,0.01,WUHU216HW,2013-12-06 19:42:00,
2013-12-06 13:47:00,14.0,4.8,29.84,NNW,338,2.0,7.6,66,0.00,,,0.01,WUHU216HW,2013-12-06 19:47:00,
2013-12-06 13:52:00,14.6,5.2,29.84,NW,315,8.5,11.4,66,0.00,,,0.01,WUHU216HW,2013-12-06 19:52:00,
2013-12-06 13:57:00,14.4,4.8,29.84,NW,315,4.5,11.4,65,0.00,,,0.01,WUHU216HW,2013-12-06 19:57:00,
2013-12-06 14:02:00,14.2,4.6,29.84,NW,315,9.6,9.6,65,0.00,,,0.01,WUHU216HW,2013-12-06 20:02:00,
2013-12-06 14:07:00,14.6,4.9,29.84,NNW,338,4.7,9.6,65,0.00,,,0.01,WUHU216HW,2013-12-06 20:07:00,
2013-12-06 14:12:00,14.2,4.6,29.84,North,0,6.0,9.6,65,0.00,,,0.01,WUHU216HW,2013-12-06 20:12:00,
2013-12-06 14:17:00,14.2,4.6,29.84,NNW,338,2.5,7.4,65,0.00,,,0.01,WUHU216HW,2013-12-06 20:17:00,
2013-12-06 14:22:00,14.8,5.0,29.85,NNW,338,9.6,9.8,65,0.00,,,0.01,WUHU216HW,2013-12-06 20:22:00,
2013-12-06 14:27:00,14.6,4.9,29.86,NNW,338,4.0,9.8,65,0.00,,,0.01,WUHU216HW,2013-12-06 20:27:00,
2013-12-06 14:32:00,14.8,5.0,29.86,NNW,338,5.4,9.6,65,0.00,,,0.01,WUHU216HW,2013-12-06 20:32:00,
2013-12-06 14:37:00,14.8,5.0,29.87,WNW,293,8.5,8.5,65,0.00,,,0.01,WUHU216HW,2013-12-06 20:37:00,
2013-12-06 14:42:00,14.9,4.9,29.87,NW,315,6.7,8.5,64,0.00,,,0.01,WUHU216HW,2013-12-06 20:42:00,
2013-12-06 14:47:00,14.8,4.7,29.86,NNW,338,6.7,8.5,64,0.00,,,0.01,WUHU216HW,2013-12-06 20:47:00,
2013-12-06 14:52:00,14.6,4.6,29.87,West,270,5.6,9.6,64,0.00,,,0.01,WUHU216HW,2013-12-06 20:52:00,
2013-12-06 14:57:00,14.6,4.6,29.87,WNW,293,7.2,9.6,64,0.00,,,0.01,WUHU216HW,2013-12-06 20:57:00,
2013-12-06 15:02:00,14.8,4.7,29.87,WNW,293,5.6,7.2,64,0.00,,,0.01,WUHU216HW,2013-12-06 21:02:00,
2013-12-06 15:07:00,14.8,4.7,29.87,North,0,2.5,9.8,64,0.00,,,0.01,WUHU216HW,2013-12-06 21:07:00,
2013-12-06 15:12:00,14.8,4.4,29.87,NW,315,8.7,9.8,63,0.00,,,0.01,WUHU216HW,2013-12-06 21:12:00,
2013-12-06 15:17:00,14.8,4.7,29.87,WNW,293,7.4,12.8,64,0.00,,,0.01,WUHU216HW,2013-12-06 21:17:00,
2013-12-06 15:22:00,14.8,4.7,29.87,NW,315,5.6,12.8,64,0.00,,,0.01,WUHU216HW,2013-12-06 21:22:00,
2013-12-06 15:27:00,14.6,4.6,29.88,WNW,293,7.6,8.1,64,0.00,,,0.01,WUHU216HW,2013-12-06 21:27:00,
2013-12-06 15:32:00,14.4,4.4,29.88,NNW,338,7.8,8.5,64,0.00,,,0.01,WUHU216HW,2013-12-06 21:32:00,
2013-12-06 15:37:00,14.0,4.1,29.88,NW,315,8.1,8.5,64,0.00,,,0.01,WUHU216HW,2013-12-06 21:37:00,
2013-12-06 15:42:00,13.7,3.7,29.88,North,0,8.1,8.1,64,0.00,,,0.01,WUHU216HW,2013-12-06 21:42:00,
2013-12-06 15:47:00,13.5,3.5,29.88,NW,315,5.4,10.1,64,0.00,,,0.01,WUHU216HW,2013-12-06 21:47:00,
2013-12-06 15:52:00,13.3,3.7,29.87,NW,315,6.9,10.1,65,0.00,,,0.01,WUHU216HW,2013-12-06 21:52:00,
2013-12-06 15:57:00,13.0,3.3,29.88,NW,315,6.3,8.3,65,0.00,,,0.01,WUHU216HW,2013-12-06 21:57:00,
2013-12-06 16:02:00,12.6,3.0,29.88,NW,315,7.6,8.3,65,0.00,,,0.01,WUHU216HW,2013-12-06 22:02:00,
2013-12-06 16:07:00,12.6,3.3,29.89,NNW,338,5.1,8.5,66,0.00,,,0.01,WUHU216HW,2013-12-06 22:07:00,
2013-12-06 16:12:00,12.4,3.2,29.89,NNW,338,7.4,8.5,66,0.00,,,0.01,WUHU216HW,2013-12-06 22:12:00,
2013-12-06 16:17:00,12.1,2.8,29.89,NW,315,8.7,8.7,66,0.00,,,0.01,WUHU216HW,2013-12-06 22:17:00,
2013-12-06 16:22:00,11.9,2.6,29.90,NNW,338,4.0,8.7,66,0.00,,,0.01,WUHU216HW,2013-12-06 22:22:00,
2013-12-06 16:27:00,11.7,2.4,29.90,NW,315,1.8,8.7,66,0.00,,,0.01,WUHU216HW,2013-12-06 22:27:00,
2013-12-06 16:32:00,11.5,2.3,29.90,NW,315,7.6,7.6,66,0.00,,,0.01,WUHU216HW,2013-12-06 22:32:00,
2013-12-06 16:37:00,11.3,2.4,29.90,NNW,338,5.1,7.6,67,0.00,,,0.01,WUHU216HW,2013-12-06 22:37:00,
2013-12-06 16:42:00,11.2,2.3,29.90,NW,315,5.4,12.1,67,0.00,,,0.01,WUHU216HW,2013-12-06 22:42:00,
2013-12-06 16:47:00,11.2,2.3,29.90,NNW,338,3.6,12.1,67,0.00,,,0.01,WUHU216HW,2013-12-06 22:47:00,
2013-12-06 16:52:00,11.0,2.4,29.90,NW,315,4.0,7.2,68,0.00,,,0.01,WUHU216HW,2013-12-06 22:52:00,
2013-12-06 16:57:00,11.0,2.4,29.90,NW,315,4.0,7.2,68,0.00,,,0.01,WUHU216HW,2013-12-06 22:57:00,
2013-12-06 17:02:00,10.8,2.3,29.90,NW,315,4.0,6.5,68,0.00,,,0.01,WUHU216HW,2013-12-06 23:02:00,
2013-12-06 17:07:00,10.6,2.1,29.90,NNW,338,5.6,8.1,68,0.00,,,0.01,WUHU216HW,2013-12-06 23:07:00,
2013-12-06 17:12:00,10.4,2.2,29.90,WNW,293,5.4,8.1,69,0.00,,,0.01,WUHU216HW,2013-12-06 23:12:00,
2013-12-06 17:17:00,10.4,2.2,29.90,North,0,5.1,6.3,69,0.00,,,0.01,WUHU216HW,2013-12-06 23:17:00,
2013-12-06 17:22:00,10.3,2.1,29.90,NNW,338,3.1,5.4,69,0.00,,,0.01,WUHU216HW,2013-12-06 23:22:00,
2013-12-06 17:27:00,10.3,2.3,29.90,NW,315,7.6,7.8,70,0.00,,,0.01,WUHU216HW,2013-12-06 23:27:00,
2013-12-06 17:32:00,10.3,2.3,29.90,NNW,338,7.6,7.8,70,0.00,,,0.01,WUHU216HW,2013-12-06 23:32:00,
2013-12-06 17:37:00,10.1,2.2,29.89,NW,315,2.9,7.6,70,0.00,,,0.01,WUHU216HW,2013-12-06 23:37:00,
2013-12-06 17:42:00,10.1,2.2,29.90,West,270,4.7,7.6,70,0.00,,,0.01,WUHU216HW,2013-12-06 23:42:00,
2013-12-06 17:47:00,9.9,2.1,29.89,NW,315,4.0,5.8,70,0.00,,,0.01,WUHU216HW,2013-12-06 23:47:00,
2013-12-06 17:52:00,9.7,2.2,29.90,West,270,4.7,5.6,71,0.00,,,0.01,WUHU216HW,2013-12-06 23:52:00,
2013-12-06 17:57:00,9.7,2.2,29.90,NW,315,7.6,11.4,71,0.00,,,0.01,WUHU216HW,2013-12-06 23:57:00,
2013-12-06 18:02:00,9.5,2.0,29.90,WNW,293,7.6,11.4,71,0.00,,,0.01,WUHU216HW,2013-12-07 00:02:00,
2013-12-06 18:07:00,9.5,2.0,29.91,NNW,338,1.8,8.9,71,0.00,,,0.01,WUHU216HW,2013-12-07 00:07:00,
2013-12-06 18:12:00,9.5,2.0,29.91,NW,315,6.3,9.2,71,0.00,,,0.01,WUHU216HW,2013-12-07 00:12:00,
2013-12-06 18:17:00,9.4,1.5,29.91,NW,315,4.3,9.2,70,0.00,,,0.01,WUHU216HW,2013-12-07 00:17:00,
2013-12-06 18:22:00,9.4,1.8,29.91,NNW,338,5.4,7.4,71,0.00,,,0.01,WUHU216HW,2013-12-07 00:22:00,
2013-12-06 18:27:00,9.2,1.7,29.91,NW,315,5.6,7.6,71,0.00,,,0.01,WUHU216HW,2013-12-07 00:27:00,
2013-12-06 18:32:00,9.2,1.7,29.91,NW,315,5.8,7.6,71,0.00,,,0.01,WUHU216HW,2013-12-07 00:32:00,
2013-12-06 18:37:00,9.0,1.5,29.92,NW,315,7.8,7.8,71,0.00,,,0.01,WUHU216HW,2013-12-07 00:37:00,
2013-12-06 18:42:00,9.0,1.8,29.92,NW,315,5.8,7.8,72,0.00,,,0.01,WUHU216HW,2013-12-07 00:42:00,
2013-12-06 18:47:00,9.0,1.8,29.92,NNW,338,5.4,10.5,72,0.00,,,0.01,WUHU216HW,2013-12-07 00:47:00,
2013-12-06 18:52:00,9.2,2.0,29.92,WNW,293,7.6,10.5,72,0.00,,,0.01,WUHU216HW,2013-12-07 00:52:00,
2013-12-06 18:57:00,9.0,1.8,29.92,West,270,8.9,9.2,72,0.00,,,0.01,WUHU216HW,2013-12-07 00:57:00,
2013-12-06 19:02:00,9.0,1.8,29.92,WNW,293,8.3,9.2,72,0.00,,,0.01,WUHU216HW,2013-12-07 01:02:00,
2013-12-06 19:07:00,9.0,1.8,29.92,WNW,293,7.6,11.4,72,0.00,,,0.01,WUHU216HW,2013-12-07 01:07:00,
2013-12-06 19:12:00,9.0,1.8,29.93,NW,315,6.0,11.4,72,0.00,,,0.01,WUHU216HW,2013-12-07 01:12:00,
2013-12-06 19:17:00,9.0,2.1,29.93,West,270,4.3,10.3,73,0.00,,,0.01,WUHU216HW,2013-12-07 01:17:00,
2013-12-06 19:22:00,9.0,1.8,29.93,NW,315,4.5,9.4,72,0.00,,,0.01,WUHU216HW,2013-12-07 01:22:00,
2013-12-06 19:27:00,9.0,1.8,29.93,WNW,293,6.3,9.4,72,0.00,,,0.01,WUHU216HW,2013-12-07 01:27:00,
2013-12-06 19:32:00,8.8,1.6,29.93,NW,315,5.6,9.2,72,0.00,,,0.01,WUHU216HW,2013-12-07 01:32:00,
2013-12-06 19:37:00,8.8,1.6,29.93,NNW,338,7.6,9.2,72,0.00,,,0.01,WUHU216HW,2013-12-07 01:37:00,
2013-12-06 19:42:00,8.8,1.9,29.94,WNW,293,5.8,9.2,73,0.00,,,0.01,WUHU216HW,2013-12-07 01:42:00,
2013-12-06 19:47:00,8.6,1.8,29.94,NW,315,5.6,7.6,73,0.00,,,0.01,WUHU216HW,2013-12-07 01:47:00,
2013-12-06 19:52:00,8.5,1.6,29.94,NNW,338,4.9,8.5,73,0.00,,,0.01,WUHU216HW,2013-12-07 01:52:00,
2013-12-06 19:57:00,8.5,1.6,29.94,NW,315,2.0,10.5,73,0.00,,,0.01,WUHU216HW,2013-12-07 01:57:00,
2013-12-06 20:02:00,8.3,1.5,29.95,NW,315,9.4,10.7,73,0.00,,,0.01,WUHU216HW,2013-12-07 02:02:00,
2013-12-06 20:07:00,8.3,1.5,29.95,WNW,293,4.7,10.7,73,0.00,,,0.01,WUHU216HW,2013-12-07 02:07:00,
2013-12-06 20:12:00,8.3,1.5,29.95,NNW,338,6.3,9.4,73,0.00,,,0.01,WUHU216HW,2013-12-07 02:12:00,
2013-12-06 20:17:00,8.1,1.3,29.96,NW,315,8.1,9.2,73,0.00,,,0.01,WUHU216HW,2013-12-07 02:17:00,
2013-12-06 20:22:00,8.1,1.3,29.96,NW,315,6.5,9.4,73,0.00,,,0.01,WUHU216HW,2013-12-07 02:22:00,
2013-12-06 20:27:00,7.9,1.1,29.96,West,270,8.9,11.9,73,0.00,,,0.01,WUHU216HW,2013-12-07 02:27:00,
2013-12-06 20:32:00,7.9,1.1,29.96,NNW,338,4.5,11.9,73,0.00,,,0.01,WUHU216HW,2013-12-07 02:32:00,
2013-12-06 20:37:00,7.7,0.5,29.96,NW,315,7.6,12.1,72,0.00,,,0.01,WUHU216HW,2013-12-07 02:37:00,
2013-12-06 20:42:00,7.6,0.4,29.97,NNW,338,9.2,12.1,72,0.00,,,0.01,WUHU216HW,2013-12-07 02:42:00,
2013-12-06 20:47:00,7.6,0.4,29.97,West,270,9.2,12.1,72,0.00,,,0.01,WUHU216HW,2013-12-07 02:47:00,
2013-12-06 20:52:00,7.6,0.4,29.97,NW,315,7.6,11.4,72,0.00,,,0.01,WUHU216HW,2013-12-07 02:52:00,
2013-12-06 20:57:00,7.6,0.4,29.97,WNW,293,7.8,11.4,72,0.00,,,0.01,WUHU216HW,2013-12-07 02:57:00,
2013-12-06 21:02:00,7.4,0.2,29.97,NNW,338,6.7,9.6,72,0.00,,,0.01,WUHU216HW,2013-12-07 03:02:00,
2013-12-06 21:07:00,7.2,0.4,29.97,NW,315,9.2,10.1,73,0.00,,,0.01,WUHU216HW,2013-12-07 03:07:00,
2013-12-06 21:12:00,7.2,0.4,29.97,WNW,293,6.3,11.2,73,0.00,,,0.01,WUHU216HW,2013-12-07 03:12:00,
2013-12-06 21:17:00,7.0,0.2,29.97,NW,315,5.8,11.2,73,0.00,,,0.01,WUHU216HW,2013-12-07 03:17:00,
2013-12-06 21:22:00,7.0,0.2,29.98,WSW,248,6.3,10.5,73,0.00,,,0.01,WUHU216HW,2013-12-07 03:22:00,
2013-12-06 21:27:00,6.8,0.0,29.98,NNW,338,5.4,10.1,73,0.00,,,0.01,WUHU216HW,2013-12-07 03:27:00,
2013-12-06 21:32:00,6.8,0.0,29.97,NW,315,8.7,10.1,73,0.00,,,0.01,WUHU216HW,2013-12-07 03:32:00,
2013-12-06 21:37:00,6.8,0.0,29.98,NNW,338,5.1,8.7,73,0.00,,,0.01,WUHU216HW,2013-12-07 03:37:00,
2013-12-06 21:42:00,6.8,0.0,29.98,NW,315,5.8,8.7,73,0.00,,,0.01,WUHU216HW,2013-12-07 03:42:00,
2013-12-06 21:47:00,6.7,-0.2,29.98,NNW,338,4.7,10.3,73,0.00,,,0.01,WUHU216HW,2013-12-07 03:47:00,
2013-12-06 21:52:00,6.5,-0.3,29.98,NNW,338,6.3,10.3,73,0.00,,,0.01,WUHU216HW,2013-12-07 03:52:00,
2013-12-06 21:57:00,6.5,-0.1,29.98,NW,315,5.1,7.6,74,0.00,,,0.01,WUHU216HW,2013-12-07 03:57:00,
2013-12-06 22:02:00,6.3,-0.3,29.99,NW,315,4.0,8.9,74,0.00,,,0.01,WUHU216HW,2013-12-07 04:02:00,
2013-12-06 22:07:00,6.3,-0.3,29.99,NW,315,7.6,8.9,74,0.00,,,0.01,WUHU216HW,2013-12-07 04:07:00,
2013-12-06 22:12:00,6.3,-0.3,29.99,NW,315,3.6,8.5,74,0.00,,,0.01,WUHU216HW,2013-12-07 04:12:00,
2013-12-06 22:17:00,6.1,-0.4,29.99,NW,315,8.3,10.5,74,0.00,,,0.01,WUHU216HW,2013-12-07 04:17:00,
2013-12-06 22:22:00,6.1,-0.2,29.98,NW,315,11.0,11.0,75,0.00,,,0.01,WUHU216HW,2013-12-07 04:22:00,
2013-12-06 22:27:00,6.1,-0.2,29.99,WNW,293,7.8,11.0,75,0.00,,,0.01,WUHU216HW,2013-12-07 04:27:00,
2013-12-06 22:32:00,6.1,-0.2,29.99,NW,315,8.3,10.3,75,0.00,,,0.01,WUHU216HW,2013-12-07 04:32:00,
2013-12-06 22:37:00,6.1,-0.2,29.99,NW,315,4.5,10.5,75,0.00,,,0.01,WUHU216HW,2013-12-07 04:37:00,
2013-12-06 22:42:00,5.9,-0.4,29.99,NNW,338,8.9,11.9,75,0.00,,,0.01,WUHU216HW,2013-12-07 04:42:00,
2013-12-06 22:47:00,5.9,-0.4,29.99,NW,315,5.4,11.9,75,0.00,,,0.01,WUHU216HW,2013-12-07 04:47:00,
2013-12-06 22:52:00,5.8,-0.5,29.99,NNW,338,5.4,11.4,75,0.00,,,0.01,WUHU216HW,2013-12-07 04:52:00,
2013-12-06 22:57:00,5.8,-0.5,30.00,NW,315,5.8,11.4,75,0.00,,,0.01,WUHU216HW,2013-12-07 04:57:00,
2013-12-06 23:01:00,5.6,-0.7,30.00,NNW,338,6.5,11.4,75,0.00,,,0.01,WUHU216HW,2013-12-07 05:01:00,
2013-12-06 23:02:00,5.6,-0.7,30.00,NW,315,7.6,11.0,75,0.00,,,0.01,WUHU216HW,2013-12-07 05:02:00,
2013-12-06 23:07:00,5.6,-0.7,30.00,West,270,9.2,9.2,75,0.00,,,0.01,WUHU216HW,2013-12-07 05:07:00,
2013-12-06 23:12:00,5.4,-0.9,30.00,NW,315,5.8,9.2,75,0.00,,,0.01,WUHU216HW,2013-12-07 05:12:00,
2013-12-06 23:17:00,5.4,-0.9,30.00,NW,315,8.5,9.2,75,0.00,,,0.01,WUHU216HW,2013-12-07 05:17:00,
2013-12-06 23:22:00,5.4,-0.9,30.00,NW,315,5.1,9.6,75,0.00,,,0.01,WUHU216HW,2013-12-07 05:22:00,
2013-12-06 23:27:00,5.2,-1.1,30.00,NNW,338,8.1,9.6,75,0.00,,,0.01,WUHU216HW,2013-12-07 05:27:00,
2013-12-06 23:32:00,5.2,-1.1,30.01,NNW,338,3.4,9.6,75,0.00,,,0.01,WUHU216HW,2013-12-07 05:32:00,
2013-12-06 23:37:00,5.2,-0.8,30.01,NW,315,6.3,10.3,76,0.00,,,0.01,WUHU216HW,2013-12-07 05:37:00,
2013-12-06 23:42:00,5.2,-0.8,30.01,North,0,5.4,10.3,76,0.00,,,0.01,WUHU216HW,2013-12-07 05:42:00,
2013-12-06 23:47:00,5.0,-1.0,30.01,NW,315,6.9,8.5,76,0.00,,,0.01,WUHU216HW,2013-12-07 05:47:00,
2013-12-06 23:52:00,4.9,-1.2,30.01,NW,315,7.2,8.1,76,0.00,,,0.01,WUHU216HW,2013-12-07 05:52:00,
2013-12-06 23:57:00,4.9,-1.2,30.01,NNW,338,4.7,8.7,76,0.00,,,0.01,WUHU216HW,2013-12-07 05:57:00,